Tiempo atmosférico en la estación meteorológica de Pedrosillo de Los Aires, Salamanca (865 m.)



Fecha
DESCASC
Temp. máxima en grados centígrados (hora)
DESCASC
Temp. mínima en grados centígrados (hora)
DESCASC
Temp. media en grados centígrados
DESCASC
Racha de viento máxima en m/sg (hora)
DESCASC
Velocidad máxima media en intervalos de 10 minutos(hora)
DESCASC
Precipitaciones diarias en mm
DESCASC
Precipitaciones de 00:00 a 06:00 en mm
DESCASC
Precipitaciones de 06:00 a 12:00 en mm
DESCASC
Precipitaciones de 12:00 a 18:00 en mm
DESCASC
Precipitaciones de 18:00 a 24:00 en mm
DESCASC
31-03-2020 11.3 (17:20) -0.5 (01:30) 5.4 10.83 (03:40) 8.06 (04:40) 1 0.4 0 0 0.6
29-03-2020 16.7 (18:20) -1 (-00:0) 7.9 10.56 (23:50) 6.39 (23:50) 0 0 0 0 0
28-03-2020 14.7 (16:20) -3.8 (-00:0) 5.4 6.39 (12:20) 3.61 (12:20) 0 0 0 0 0
27-03-2020 11.3 (17:10) -1 (-00:0) 5.2 11.39 (02:10) 8.33 (02:50) 0 0 0 0 0
26-03-2020 13.6 (17:20) -1 (-00:0) 6.3 11.39 (14:20) 6.39 (23:59) 0 0 0 0 0
25-03-2020 16.5 (16:00) 2 (00:00) 9.3 10.28 (16:50) 6.39 (16:50) 5 0 0 1.4 3.6
24-03-2020 15 (14:50) 3.2 (00:00) 9.1 10.83 (12:10) 6.94 (15:50) 0 0 0 0 0
23-03-2020 13.1 (15:10) 2.8 (00:00) 8 12.5 (16:10) 8.33 (16:20) 0 0 0 0 0
22-03-2020 11.8 (18:20) 3 (00:00) 7.4 8.89 (19:30) 5.83 (13:00) 1.8 1.4 0 0 0.4
21-03-2020 9.6 (00:40) 3 (00:00) 6.3 9.17 (03:40) 5.83 (03:20) 6.2 1.2 5 0 0
20-03-2020 12.1 (16:00) 5 (00:00) 8.6 8.61 (18:10) 5.56 (18:20) 0 0 0 0 0
19-03-2020 14.2 (14:10) 4.7 (00:00) 9.4 4.17 (00:10) 2.78 (18:00) 0 0 0 0 0
18-03-2020 18.4 (16:00) 5.1 (00:00) 11.7 10 (01:10) 7.22 (00:10) 0 0 0 0 0
17-03-2020 13.5 (17:40) 1.2 (00:00) 7.4 15 (17:10) 8.33 (13:40) 0 0 0 0 0
16-03-2020 3.4 (21:10) 0.1 (00:00) 1.8 18.33 (18:10) 10.56 (19:40) 33.8 1.2 6.4 10.8 15.4
15-03-2020 16.7 (12:50) -1.2 (-00:0) 7.8 19.44 (15:10) 10.56 (14:30) 0 0 0 0 0
14-03-2020 17.5 (17:00) -0.5 (-00:0) 8.5 7.5 (15:00) 5 (15:00) 0 0 0 0 0
13-03-2020 15 (17:10) 6.4 (07:20) 10.7 7.78 (08:10) 5 (13:50) 0 0 0 0 0
12-03-2020 22.2 (14:10) 5.7 (00:00) 14 9.72 (14:20) 6.94 (14:20) 0 0 0 0 0
11-03-2020 23.8 (15:00) 3 (00:00) 13.4 8.06 (15:10) 5.83 (15:40) 0 0 0 0 0
10-03-2020 22.5 (16:30) 1.5 (00:00) 12 9.17 (17:10) 5 (17:00) 0 0 0 0 0
09-03-2020 14 (16:50) 1.8 (00:00) 7.9 7.78 (00:20) 4.72 (00:10) 0 0 0 0 0
08-03-2020 11.4 (13:10) -2.8 (-00:0) 4.3 8.06 (18:30) 5 (18:30) 0 0 0 0 0
07-03-2020 13.2 (17:10) -0.3 (00:00) 6.4 5 (11:40) 3.33 (06:40) 0 0 0 0 0
06-03-2020 9.1 (17:20) 1.7 (00:00) 5.4 13.61 (06:40) 8.33 (12:30) 0.4 0.2 0.2 0 0
05-03-2020 11.4 (17:00) 3.9 (00:00) 7.6 19.72 (06:00) 13.33 (06:00) 2.8 0 2.8 0 0
04-03-2020 13.6 (12:30) 8.3 (07:50) 11 9.44 (12:40) 5.83 (12:40) 0.2 0.2 0 0 0
03-03-2020 11.2 (19:10) 3.3 (00:00) 7.2 15.28 (12:10) 8.33 (11:20) 0.4 0 0 0.4 0

Gráficas

Temp. máximas Temp. mínimas Temp. medias Precipitaciones Rachas de viento máximas Velocidades máximas media en intervalos de 10 minutos

Datos horarios

Fecha y hora oficial Temperatura (ºC) Velocidad del viento (km/h) Dirección del viento Racha (km/h) Dirección de racha Precipitación (mm) Presión (hPa) Tendencia (hPa) Humedad (%)
2020-04-01 23:00:00 2.3 8 Oeste 10 Sudoeste 0 -- -- 84
2020-04-01 22:00:00 5.3 6 Oeste 10 Oeste 0 -- -- 72
2020-04-01 21:00:00 7.5 8 Oeste 19 Sudoeste 0 -- -- 61
2020-04-01 20:00:00 10.3 12 Sudoeste 24 Oeste 0 -- -- 55
2020-04-01 19:00:00 11 12 Sudoeste 30 Sudoeste 0 -- -- 52
2020-04-01 18:00:00 11.2 15 Sudoeste 27 Sudoeste 0 -- -- 53
2020-04-01 17:00:00 11 19 Sudoeste 30 Sudoeste 0 -- -- 56
2020-04-01 16:00:00 10.8 12 Sudoeste 23 Sudoeste 0 -- -- 56
2020-04-01 15:00:00 10.9 6 Sur 23 Sudoeste 0 -- -- 64
2020-04-01 14:00:00 8.9 12 Sudoeste 27 Sudoeste 0 -- -- 67
2020-04-01 13:00:00 8.3 5 Oeste 14 Sudoeste 0 -- -- 72
2020-04-01 12:00:00 7.1 8 Oeste 15 Sudoeste 0 -- -- 74
2020-04-01 11:00:00 5.2 3 Sur 10 Este 0 -- -- 80
2020-04-01 10:00:00 2.9 2 Nordeste 8 Norte 0 -- -- 95
2020-04-01 09:00:00 1.3 3 Sur 7 Sudoeste 0 -- -- 96
2020-04-01 08:00:00 0.6 2 Sudeste 9 Sudoeste 0 -- -- 94
2020-04-01 07:00:00 0.9 4 Sudeste 13 Sudoeste 0 -- -- 93
2020-04-01 06:00:00 1.7 6 Sudoeste 18 Sudoeste 0 -- -- 91
2020-04-01 05:00:00 3.4 9 Sudoeste 31 Sudoeste 0 -- -- 85
2020-04-01 04:00:00 4.7 15 Sudoeste 31 Sudoeste 0 -- -- 95
2020-04-01 03:00:00 5.4 17 Sudoeste 25 Sudoeste 0 -- -- 95
2020-04-01 02:00:00 4 6 Oeste 12 Oeste 0 -- -- 95
2020-04-01 01:00:00 4.8 4 Noroeste 8 Noroeste 0 -- -- 92
2020-04-01 00:00:00 5 5 Sur 8 Sur 0 -- -- 89
2020-03-31 23:00:00 6.3 3 Sudoeste 11 Sudeste 0 -- -- 85
2020-03-31 22:00:00 7 10 Sudeste 16 Sudeste 0 -- -- 82
2020-03-31 21:00:00 7.7 4 Este 11 Nordeste 0 -- -- 87
2020-03-31 20:00:00 8.3 8 Este 27 Sudeste 0.2 -- -- 87
2020-03-31 19:00:00 9.8 2 Este 21 Sudoeste 0.4 -- -- 80
2020-03-31 18:00:00 10.6 13 Sudoeste 21 Sudoeste 0 -- -- 68
2020-03-31 17:00:00 11.2 8 Norte 13 Norte 0 -- -- 65
2020-03-31 16:00:00 10.5 7 Este 22 Este 0 -- -- 63
2020-03-31 15:00:00 9.9 9 Sudeste 24 Este 0 -- -- 66
2020-03-31 14:00:00 7.7 13 Este 23 Este 0 -- -- 75
2020-03-31 13:00:00 6 9 Nordeste 28 Nordeste 0 -- -- 85
2020-03-31 12:00:00 4.2 21 Nordeste 37 Nordeste 0 -- -- 87
2020-03-31 11:00:00 1.5 21 Nordeste 28 Nordeste 0 -- -- 92
2020-03-31 10:00:00 0 21 Nordeste 36 Nordeste 0 -- -- 93
2020-03-31 09:00:00 -0.3 24 Nordeste 37 Nordeste 0 -- -- 94
2020-03-31 08:00:00 -0.1 21 Nordeste 39 Nordeste 0 -- -- 94
2020-03-31 07:00:00 0 22 Nordeste 38 Nordeste 0 -- -- 94
2020-03-31 06:00:00 -0.2 25 Nordeste 37 Nordeste 0 -- -- 94
2020-03-31 05:00:00 -0.4 27 Nordeste 39 Nordeste 0 -- -- 93
2020-03-31 04:00:00 -0.4 26 Nordeste 39 Nordeste 0 -- -- 92
2020-03-31 03:00:00 -0.4 26 Nordeste 35 Nordeste 0.2 -- -- 93
2020-03-31 02:00:00 -0.5 24 Nordeste 39 Nordeste 0 -- -- 94
2020-03-31 01:00:00 -0.1 23 Nordeste 35 Nordeste 0.2 -- -- 91
2020-03-31 00:00:00 0.3 20 Nordeste 31 Nordeste 0 -- -- 90
2020-03-30 23:00:00 0.1 18 Nordeste 26 Este 0 -- -- 93
2020-03-30 22:00:00 0.3 18 Nordeste 30 Nordeste 0 -- -- 91
2020-03-30 21:00:00 0.9 16 Este 32 Nordeste 0 -- -- 87
2020-03-30 20:00:00 1.4 20 Nordeste 39 Nordeste 0 -- -- 79
2020-03-30 19:00:00 1.4 25 Nordeste 40 Nordeste 0 -- -- 77
2020-03-30 18:00:00 1.5 21 Este 45 Nordeste 0 -- -- 79
2020-03-30 17:00:00 2.3 30 Nordeste 48 Nordeste 0 -- -- 70
2020-03-30 16:00:00 2.8 34 Nordeste 46 Nordeste 0 -- -- 64
2020-03-30 15:00:00 2.8 29 Nordeste 50 Nordeste 0 -- -- 63
2020-03-30 14:00:00 3.4 32 Nordeste 45 Nordeste 0 -- -- 61
2020-03-30 13:00:00 3.2 29 Nordeste 50 Nordeste 0 -- -- 68
2020-03-30 12:00:00 2.3 30 Nordeste 46 Nordeste 0 -- -- 71
2020-03-30 11:00:00 1.9 30 Nordeste 48 Nordeste 0 -- -- 81
2020-03-30 10:00:00 1.6 31 Nordeste 47 Nordeste 0 -- -- 85
2020-03-30 09:00:00 1.6 31 Nordeste 48 Nordeste 0 -- -- 85
2020-03-30 08:00:00 2.7 27 Nordeste 51 Nordeste 0 -- -- 78
2020-03-30 07:00:00 3.4 24 Nordeste 46 Nordeste 0 -- -- 83
2020-03-30 06:00:00 4.1 29 Nordeste 48 Nordeste 0 -- -- 82
2020-03-30 05:00:00 4.3 30 Nordeste 50 Nordeste 0 -- -- 81
2020-03-30 04:00:00 4.8 30 Nordeste 43 Nordeste 0 -- -- 80
2020-03-30 03:00:00 5.6 28 Nordeste 44 Nordeste 0 -- -- 77
2020-03-30 02:00:00 6.3 27 Nordeste 39 Nordeste 0 -- -- 74
2020-03-30 01:00:00 7.4 22 Nordeste 30 Nordeste 0 -- -- 67
2020-03-30 00:00:00 9.1 17 Nordeste 38 Nordeste 0 -- -- 60
2020-03-29 23:00:00 10.6 5 Sudoeste 9 Sudoeste 0 -- -- 64
2020-03-29 22:00:00 11.6 6 Sudoeste 9 Sudoeste 0 -- -- 60
2020-03-29 21:00:00 12.2 3 Sudoeste 15 Nordeste 0 -- -- 59
2020-03-29 20:00:00 13.1 9 Nordeste 15 Norte 0 -- -- 52
2020-03-29 19:00:00 14.5 12 Nordeste 17 Nordeste 0 -- -- 46
2020-03-29 18:00:00 16.2 7 Norte 16 Noroeste 0 -- -- 42
2020-03-29 17:00:00 14.7 10 Nordeste 19 Nordeste 0 -- -- 46
2020-03-29 16:00:00 14.3 9 Norte 19 Sudeste 0 -- -- 45
2020-03-29 15:00:00 15 13 Este 25 Este 0 -- -- 44
2020-03-29 14:00:00 14.1 7 Norte 15 Noroeste 0 -- -- 51
2020-03-29 13:00:00 12.9 4 Este 12 Norte 0 -- -- 53
2020-03-29 12:00:00 11.4 3 Oeste 8 Sudoeste 0 -- -- 62
2020-03-29 11:00:00 7.7 0 Calma 6 Oeste 0 -- -- 79
2020-03-29 10:00:00 3.2 4 Oeste 7 Oeste 0 -- -- 87
2020-03-29 09:00:00 -0.6 5 Oeste 9 Oeste 0 -- -- 94
2020-03-29 08:00:00 -0.8 5 Noroeste 10 Oeste 0 -- -- 93
2020-03-29 07:00:00 -0.4 8 Sudoeste 10 Sudoeste 0 -- -- 92
2020-03-29 06:00:00 -0.2 5 Oeste 8 Oeste 0 -- -- 93
2020-03-29 05:00:00 -0.1 6 Oeste 13 Oeste 0 -- -- 92
2020-03-29 03:00:00 1.5 3 Noroeste 9 Oeste 0 -- -- 86
2020-03-29 01:00:00 2 8 Oeste 10 Oeste 0 -- -- 87
2020-03-29 00:00:00 3.6 4 Oeste 8 Sudoeste 0 -- -- 81
2020-03-28 23:00:00 6.2 4 Sur 9 Oeste 0 -- -- 69
2020-03-28 22:00:00 7.7 5 Oeste 13 Oeste 0 -- -- 64
2020-03-28 21:00:00 9.2 10 Oeste 17 Sudoeste 0 -- -- 60
2020-03-28 20:00:00 10.3 9 Oeste 16 Oeste 0 -- -- 57
2020-03-28 19:00:00 11.9 9 Norte 17 Norte 0 -- -- 55
2020-03-28 18:00:00 14 8 Norte 19 Noroeste 0 -- -- 39
2020-03-28 17:00:00 14.6 13 Norte 20 Norte 0 -- -- 40
2020-03-28 16:00:00 14.5 12 Norte 21 Norte 0 -- -- 40
2020-03-28 15:00:00 13.4 9 Norte 17 Norte 0 -- -- 40
2020-03-28 14:00:00 13.4 4 Nordeste 22 Nordeste 0 -- -- 44
2020-03-28 13:00:00 12.4 8 Norte 23 Nordeste 0 -- -- 46
2020-03-28 12:00:00 10.8 7 Norte 15 Nordeste 0 -- -- 55
2020-03-28 11:00:00 8 6 Este 11 Nordeste 0 -- -- 67
2020-03-28 10:00:00 4.8 6 Norte 9 Norte 0 -- -- 76
2020-03-28 09:00:00 0.5 4 Noroeste 7 Oeste 0 -- -- 91
2020-03-28 08:00:00 -2.9 6 Sudoeste 10 Oeste 0 -- -- 95
2020-03-28 07:00:00 -3.7 3 Noroeste 10 Oeste 0 -- -- 94
2020-03-28 06:00:00 -3.5 4 Oeste 6 Oeste 0 -- -- 93
2020-03-28 05:00:00 -3 2 Norte 9 Sudoeste 0 -- -- 94
2020-03-28 04:00:00 -2.4 2 Norte 6 Noroeste 0 -- -- 92
2020-03-28 03:00:00 -1.9 2 Noroeste 6 Oeste 0 -- -- 91
2020-03-28 02:00:00 -1.8 4 Oeste 8 Oeste 0 -- -- 90
2020-03-28 01:00:00 -0.8 5 Noroeste 9 Noroeste 0 -- -- 89
2020-03-28 00:00:00 -0.1 7 Oeste 14 Oeste 0 -- -- 85
2020-03-27 23:00:00 1 10 Oeste 13 Oeste 0 -- -- 82
2020-03-27 22:00:00 3.9 3 Sur 20 Sudeste 0 -- -- 69
2020-03-27 21:00:00 4.8 9 Sudeste 18 Sudeste 0 -- -- 67
2020-03-27 20:00:00 6.7 11 Este 17 Este 0 -- -- 56
2020-03-27 19:00:00 9.3 14 Sudeste 27 Este 0 -- -- 49
2020-03-27 18:00:00 10.2 16 Este 29 Este 0 -- -- 44
2020-03-27 17:00:00 11.2 14 Sudeste 33 Este 0 -- -- 40
2020-03-27 16:00:00 10.5 18 Este 35 Norte 0 -- -- 43
2020-03-27 15:00:00 9.9 22 Nordeste 37 Nordeste 0 -- -- 53
2020-03-27 14:00:00 9.6 21 Nordeste 38 Nordeste 0 -- -- 55
2020-03-27 13:00:00 8.4 23 Nordeste 33 Nordeste 0 -- -- 60
2020-03-27 12:00:00 6.8 21 Nordeste 29 Nordeste 0 -- -- 66
2020-03-27 11:00:00 4.8 21 Nordeste 33 Nordeste 0 -- -- 72
2020-03-27 10:00:00 2.4 22 Nordeste 31 Nordeste 0 -- -- 75
2020-03-27 09:00:00 0.9 18 Nordeste 28 Nordeste 0 -- -- 78
2020-03-27 08:00:00 -0.6 16 Nordeste 24 Nordeste 0 -- -- 83
2020-03-27 07:00:00 -0.8 17 Nordeste 27 Nordeste 0 -- -- 85
2020-03-27 06:00:00 -0.4 15 Nordeste 27 Nordeste 0 -- -- 84
2020-03-27 05:00:00 0.3 19 Nordeste 40 Nordeste 0 -- -- 81
2020-03-27 04:00:00 1.1 27 Nordeste 38 Nordeste 0 -- -- 80
2020-03-27 03:00:00 1.9 28 Nordeste 41 Nordeste 0 -- -- 80
2020-03-27 02:00:00 2.6 28 Nordeste 38 Nordeste 0 -- -- 78
2020-03-27 01:00:00 3.3 26 Nordeste 39 Nordeste 0 -- -- 76
2020-03-27 00:00:00 4 23 Nordeste 32 Nordeste 0 -- -- 76
2020-03-26 23:00:00 2.9 6 Norte 10 Oeste 0 -- -- 84
2020-03-26 22:00:00 4.7 5 Noroeste 9 Noroeste 0 -- -- 74
2020-03-26 21:00:00 7.3 8 Este 13 Este 0 -- -- 63
2020-03-26 20:00:00 9.2 10 Nordeste 17 Nordeste 0 -- -- 55
2020-03-26 19:00:00 12.7 9 Nordeste 14 Nordeste 0 -- -- 41
2020-03-26 18:00:00 13.5 7 Nordeste 17 Norte 0 -- -- 42
2020-03-26 17:00:00 13.4 14 Nordeste 22 Norte 0 -- -- 47
2020-03-26 16:00:00 13.2 13 Norte 25 Norte 0 -- -- 38
2020-03-26 15:00:00 12.8 14 Norte 41 Norte 0 -- -- 41
2020-03-26 14:00:00 12.6 8 Norte 21 Nordeste 0 -- -- 51
2020-03-26 13:00:00 11.9 8 Este 19 Este 0 -- -- 60
2020-03-26 12:00:00 11 4 Este 13 Nordeste 0 -- -- 55
2020-03-26 11:00:00 9.2 4 Norte 9 Oeste 0 -- -- 62
2020-03-26 10:00:00 6.7 2 Sudoeste 6 Sur 0 -- -- 76
2020-03-26 09:00:00 2.1 0 Calma 8 Oeste 0 -- -- 94
2020-03-26 08:00:00 -0.2 2 Oeste 7 Oeste 0 -- -- 93
2020-03-26 07:00:00 -0.8 3 Oeste 6 Noroeste 0 -- -- 94
2020-03-26 06:00:00 0 0 Calma 10 Sudoeste 0 -- -- 91
2020-03-26 05:00:00 0.8 6 Sudoeste 8 Oeste 0 -- -- 90
2020-03-26 04:00:00 2.3 5 Oeste 8 Oeste 0 -- -- 84
2020-03-26 03:00:00 3.6 8 Oeste 12 Noroeste 0 -- -- 77
2020-03-26 02:00:00 5.8 4 Noroeste 19 Noroeste 0 -- -- 65
2020-03-26 01:00:00 7.7 7 Noroeste 28 Noroeste 0 -- -- 67
2020-03-26 00:00:00 9.3 17 Noroeste 33 Noroeste 0 -- -- 71
2020-03-25 23:00:00 7.9 11 Sudoeste 17 Sur 0 -- -- 89
2020-03-25 22:00:00 8.1 12 Sudoeste 17 Sudoeste 0 -- -- 91
2020-03-25 21:00:00 8.2 9 Sudoeste 13 Sur 0 -- -- 91
2020-03-25 20:00:00 8.9 9 Sudoeste 33 Norte 2 -- -- 88
2020-03-25 19:00:00 9.1 12 Este 36 Norte 1.6 -- -- 84
2020-03-25 18:00:00 10.7 2 Sur 33 Nordeste 1.4 -- -- 78
2020-03-25 17:00:00 11.6 13 Nordeste 37 Este 0 -- -- 73
2020-03-25 16:00:00 16.5 14 Noroeste 33 Noroeste 0 -- -- 45
2020-03-25 15:00:00 15 12 Norte 26 Norte 0 -- -- 52
2020-03-25 14:00:00 14.8 11 Noroeste 25 Noroeste 0 -- -- 62
2020-03-25 13:00:00 14 12 Noroeste 25 Oeste 0 -- -- 59
2020-03-25 12:00:00 12.6 8 Noroeste 16 Norte 0 -- -- 63
2020-03-25 11:00:00 12.1 5 Sur 14 Sur 0 -- -- 73
2020-03-25 10:00:00 9.5 5 Sur 11 Sudoeste 0 -- -- 85
2020-03-25 09:00:00 6.3 5 Sudoeste 10 Sudoeste 0 -- -- 97
2020-03-25 08:00:00 3 6 Sudoeste 9 Sudoeste 0 -- -- 97
2020-03-25 07:00:00 3.2 8 Sudoeste 12 Sudoeste 0 -- -- 97
2020-03-25 06:00:00 2.7 3 Oeste 13 Sudoeste 0 -- -- 97
2020-03-25 05:00:00 2.5 2 Sur 9 Sudoeste 0 -- -- 97
2020-03-25 04:00:00 2.5 7 Sudoeste 10 Sudoeste 0 -- -- 96
2020-03-25 03:00:00 2.3 8 Oeste 10 Oeste 0 -- -- 94
2020-03-25 02:00:00 3.8 4 Noroeste 6 Oeste 0 -- -- 92
2020-03-25 01:00:00 5.3 5 Oeste 8 Oeste 0 -- -- 89
2020-03-25 00:00:00 7.2 4 Oeste 9 Norte 0 -- -- 87
2020-03-24 23:00:00 9.3 6 Nordeste 13 Nordeste 0 -- -- 78
2020-03-24 22:00:00 10.2 2 Oeste 8 Este 0 -- -- 78
2020-03-24 21:00:00 10.8 3 Nordeste 10 Nordeste 0 -- -- 71
2020-03-24 20:00:00 11.4 9 Nordeste 21 Nordeste 0 -- -- 70
2020-03-24 19:00:00 12.4 15 Nordeste 31 Nordeste 0 -- -- 65
2020-03-24 18:00:00 12.9 17 Nordeste 28 Nordeste 0 -- -- 62
2020-03-24 17:00:00 14.5 20 Nordeste 32 Nordeste 0 -- -- 60
2020-03-24 16:00:00 14.6 23 Nordeste 33 Nordeste 0 -- -- 61
2020-03-24 15:00:00 14.7 23 Nordeste 34 Este 0 -- -- 58
2020-03-24 14:00:00 14.3 22 Nordeste 33 Nordeste 0 -- -- 55
2020-03-24 13:00:00 14.2 19 Sudeste 39 Este 0 -- -- 59
2020-03-24 12:00:00 13.3 22 Este 33 Este 0 -- -- 61
2020-03-24 11:00:00 11.3 17 Nordeste 26 Nordeste 0 -- -- 76
2020-03-24 10:00:00 8.1 15 Nordeste 32 Nordeste 0 -- -- 87
2020-03-24 09:00:00 5.3 21 Nordeste 27 Nordeste 0 -- -- 92
2020-03-24 08:00:00 4.2 14 Nordeste 23 Nordeste 0 -- -- 92
2020-03-24 07:00:00 3.7 15 Nordeste 22 Nordeste 0 -- -- 93
2020-03-24 06:00:00 4 13 Nordeste 26 Nordeste 0 -- -- 93
2020-03-24 05:00:00 3.7 15 Nordeste 21 Nordeste 0 -- -- 95
2020-03-24 04:00:00 4.2 3 Norte 8 Noroeste 0 -- -- 90
2020-03-24 03:00:00 4.4 4 Nordeste 12 Nordeste 0 -- -- 89
2020-03-24 02:00:00 5.3 0 Calma 18 Nordeste 0 -- -- 87
2020-03-24 01:00:00 6.3 12 Nordeste 22 Nordeste 0 -- -- 85
2020-03-24 00:00:00 6.1 14 Nordeste 31 Nordeste 0 -- -- 84
2020-03-23 23:00:00 6.5 15 Nordeste 22 Nordeste 0 -- -- 80
2020-03-23 22:00:00 7.4 12 Nordeste 23 Este 0 -- -- 75
2020-03-23 21:00:00 7.5 6 Este 15 Este 0 -- -- 73
2020-03-23 20:00:00 9.8 9 Este 28 Este 0 -- -- 64
2020-03-23 19:00:00 11.9 19 Este 35 Este 0 -- -- 56
2020-03-23 18:00:00 12.6 19 Este 32 Este 0 -- -- 52
2020-03-23 17:00:00 12.5 19 Este 45 Nordeste 0 -- -- 55
2020-03-23 16:00:00 12.2 15 Nordeste 42 Este 0 -- -- 69
2020-03-23 15:00:00 12.5 24 Nordeste 38 Nordeste 0 -- -- 68
2020-03-23 14:00:00 12.5 24 Nordeste 33 Nordeste 0 -- -- 66
2020-03-23 13:00:00 11.2 20 Nordeste 32 Nordeste 0 -- -- 70
2020-03-23 12:00:00 9.9 21 Nordeste 28 Nordeste 0 -- -- 82
2020-03-23 11:00:00 8.5 17 Nordeste 24 Nordeste 0 -- -- 99
2020-03-23 10:00:00 5.3 14 Nordeste 19 Nordeste 0 -- -- 100
2020-03-23 09:00:00 4.2 9 Nordeste 20 Nordeste 0 -- -- 100
2020-03-23 08:00:00 3.7 12 Nordeste 17 Nordeste 0 -- -- 99
2020-03-23 07:00:00 3.9 6 Este 10 Nordeste 0 -- -- 98
2020-03-23 06:00:00 3.8 3 Norte 8 Nordeste 0 -- -- 99
2020-03-23 05:00:00 3 3 Sudoeste 4 Sudoeste 0 -- -- 98
2020-03-23 04:00:00 3.6 2 Norte 8 Norte 0 -- -- 97
2020-03-23 03:00:00 4.4 2 Noroeste 5 Norte 0 -- -- 96
2020-03-23 02:00:00 5.2 0 Calma 4 Norte 0 -- -- 96
2020-03-23 01:00:00 5.5 2 Nordeste 6 Norte 0 -- -- 96
2020-03-23 00:00:00 6 5 Noroeste 8 Noroeste 0 -- -- 96
2020-03-22 23:00:00 6.5 2 Nordeste 9 Nordeste 0 -- -- 94
2020-03-22 22:00:00 7.2 8 Nordeste 11 Nordeste 0 -- -- 91
2020-03-22 21:00:00 7.7 3 Este 23 Este 0.2 -- -- 89
2020-03-22 20:00:00 7.8 13 Nordeste 32 Nordeste 0 -- -- 88
2020-03-22 19:00:00 9.5 9 Este 25 Nordeste 0.2 -- -- 82
2020-03-22 18:00:00 11.3 15 Nordeste 24 Nordeste 0 -- -- 70
2020-03-22 17:00:00 11.5 16 Nordeste 23 Nordeste 0 -- -- 68
2020-03-22 16:00:00 11.3 14 Nordeste 27 Norte 0 -- -- 69
2020-03-22 15:00:00 10.9 17 Nordeste 28 Nordeste 0 -- -- 74
2020-03-22 14:00:00 10.6 19 Nordeste 28 Nordeste 0 -- -- 76
2020-03-22 13:00:00 10.2 21 Nordeste 28 Nordeste 0 -- -- 79
2020-03-22 12:00:00 9.1 17 Nordeste 22 Nordeste 0 -- -- 83
2020-03-22 11:00:00 7.9 10 Nordeste 14 Nordeste 0 -- -- 89
2020-03-22 10:00:00 6.9 8 Nordeste 10 Nordeste 0 -- -- 93
2020-03-22 09:00:00 6.3 4 Nordeste 6 Este 0 -- -- 98
2020-03-22 08:00:00 5.5 2 Oeste 4 Sudeste 0 -- -- 99
2020-03-22 07:00:00 5.5 2 Este 3 Este 0 -- -- 99
2020-03-22 06:00:00 5.3 3 Oeste 6 Oeste 1 -- -- 99
2020-03-22 05:00:00 5 0 Calma 4 Noroeste 0.4 -- -- 99
2020-03-22 04:00:00 4.6 4 Noroeste 8 Oeste 0 -- -- 99
2020-03-22 03:00:00 4.2 2 Noroeste 6 Oeste 0 -- -- 99
2020-03-22 02:00:00 3.5 3 Noroeste 6 Oeste 0 -- -- 98
2020-03-22 01:00:00 3 5 Norte 9 Oeste 0 -- -- 98
2020-03-22 00:00:00 3 6 Oeste 8 Oeste 0 -- -- 97
2020-03-21 23:00:00 4.2 6 Oeste 9 Oeste 0 -- -- 96
2020-03-21 22:00:00 5.3 3 Norte 9 Oeste 0 -- -- 95
2020-03-21 21:00:00 5.5 4 Oeste 5 Oeste 0 -- -- 92
2020-03-21 20:00:00 6.4 4 Noroeste 6 Noroeste 0 -- -- 89
2020-03-21 19:00:00 7.3 4 Oeste 13 Sudoeste 0 -- -- 86
2020-03-21 18:00:00 7.6 10 Sudoeste 23 Sudoeste 0 -- -- 86
2020-03-21 17:00:00 9 4 Noroeste 13 Norte 0 -- -- 75
2020-03-21 16:00:00 8.6 6 Norte 13 Norte 0 -- -- 79
2020-03-21 15:00:00 7.3 4 Norte 15 Sudoeste 0 -- -- 89
2020-03-21 14:00:00 6.6 10 Sudoeste 16 Sudoeste 0 -- -- 89
2020-03-21 13:00:00 7.2 9 Oeste 19 Sudoeste 0 -- -- 84
2020-03-21 12:00:00 5.9 6 Oeste 29 Sudoeste 1 -- -- 94
2020-03-21 11:00:00 5.1 17 Sudoeste 29 Sudoeste 2.6 -- -- 96
2020-03-21 10:00:00 6.3 12 Sudoeste 21 Sudoeste 0.4 -- -- 96
2020-03-21 09:00:00 6.7 13 Sudoeste 22 Sudoeste 0.4 -- -- 97
2020-03-21 08:00:00 6.7 7 Sudoeste 13 Sudoeste 0 -- -- 97
2020-03-21 07:00:00 6.7 3 Oeste 6 Norte 0.6 -- -- 96
2020-03-21 06:00:00 7 7 Oeste 18 Oeste 1.2 -- -- 95
2020-03-21 05:00:00 7.8 10 Oeste 32 Sudeste 0 -- -- 92
2020-03-21 04:00:00 9.3 17 Sudeste 33 Este 0 -- -- 76
2020-03-21 03:00:00 9.3 18 Sudeste 32 Sudeste 0 -- -- 77
2020-03-21 02:00:00 9.6 16 Este 31 Sudeste 0 -- -- 77
2020-03-21 01:00:00 9.4 12 Nordeste 23 Este 0 -- -- 77
2020-03-21 00:00:00 8.6 13 Nordeste 18 Nordeste 0 -- -- 84
2020-03-20 23:00:00 8.7 12 Nordeste 15 Nordeste 0 -- -- 85
2020-03-20 22:00:00 9.1 5 Nordeste 10 Nordeste 0 -- -- 85
2020-03-20 21:00:00 9.2 7 Nordeste 18 Nordeste 0 -- -- 83
2020-03-20 20:00:00 9.7 0 Calma 19 Nordeste 0 -- -- 87
2020-03-20 19:00:00 10.1 14 Nordeste 31 Nordeste 0 -- -- 84
2020-03-20 18:00:00 11.3 17 Nordeste 23 Nordeste 0 -- -- 80
2020-03-20 17:00:00 11.7 10 Nordeste 18 Norte 0 -- -- 79
2020-03-20 16:00:00 12.1 3 Nordeste 15 Norte 0 -- -- 77
2020-03-20 15:00:00 11.4 7 Noroeste 24 Sudoeste 0 -- -- 79
2020-03-20 14:00:00 11.4 15 Sudoeste 22 Sudoeste 0 -- -- 79
2020-03-20 13:00:00 11.5 15 Sudoeste 22 Sudoeste 0 -- -- 79
2020-03-20 12:00:00 11 12 Sudoeste 21 Sudoeste 0 -- -- 82
2020-03-20 11:00:00 10.2 10 Sur 18 Sur 0 -- -- 83
2020-03-20 10:00:00 8.1 0 Calma 4 Norte 0 -- -- 96
2020-03-20 09:00:00 6.3 0 Calma 8 Oeste 0 -- -- 98
2020-03-20 08:00:00 5.1 4 Oeste 6 Oeste 0 -- -- 98
2020-03-20 07:00:00 5.6 4 Norte 6 Norte 0 -- -- 97
2020-03-20 06:00:00 6 4 Oeste 6 Oeste 0 -- -- 96
2020-03-20 05:00:00 6.1 5 Norte 9 Oeste 0 -- -- 97
2020-03-20 04:00:00 6.2 3 Oeste 6 Sudoeste 0 -- -- 96
2020-03-20 03:00:00 6.6 3 Norte 7 Oeste 0 -- -- 95
2020-03-20 02:00:00 7.3 3 Noroeste 6 Norte 0 -- -- 94
2020-03-20 01:00:00 7.6 3 Norte 5 Sur 0 -- -- 94
2020-03-20 00:00:00 8.8 0 Calma 7 Sur 0 -- -- 89
2020-03-19 23:00:00 9.2 4 Sudoeste 13 Sudoeste 0 -- -- 88
2020-03-19 22:00:00 9.4 5 Sudoeste 12 Sudoeste 0 -- -- 89
2020-03-19 21:00:00 9.6 7 Sudoeste 11 Oeste 0 -- -- 89
2020-03-19 20:00:00 10.9 7 Oeste 8 Oeste 0 -- -- 83
2020-03-19 19:00:00 12.2 6 Este 14 Nordeste 0 -- -- 76
2020-03-19 18:00:00 12.9 10 Nordeste 13 Nordeste 0 -- -- 71
2020-03-19 17:00:00 13.8 6 Nordeste 9 Nordeste 0 -- -- 71
2020-03-19 16:00:00 14 4 Nordeste 5 Nordeste 0 -- -- 67
2020-03-19 15:00:00 14 0 Calma 6 Oeste 0 -- -- 64
2020-03-19 14:00:00 14.1 3 Sur 6 Este 0 -- -- 62
2020-03-19 13:00:00 13.6 4 Sudeste 9 Sudeste 0 -- -- 66
2020-03-19 12:00:00 13 2 Este 9 Sudeste 0 -- -- 70
2020-03-19 11:00:00 11.1 0 Calma 6 Sur 0 -- -- 77
2020-03-19 10:00:00 8.3 2 Sur 9 Oeste 0 -- -- 91
2020-03-19 09:00:00 5.8 0 Calma 8 Oeste 0 -- -- 95
2020-03-19 08:00:00 4.7 7 Oeste 9 Oeste 0 -- -- 94
2020-03-19 07:00:00 5.1 2 Oeste 5 Sudoeste 0 -- -- 93
2020-03-19 06:00:00 5.7 3 Oeste 12 Oeste 0 -- -- 92
2020-03-19 05:00:00 5.3 6 Oeste 9 Noroeste 0 -- -- 92
2020-03-19 04:00:00 6 4 Noroeste 8 Norte 0 -- -- 90
2020-03-19 03:00:00 6.7 5 Noroeste 9 Sudoeste 0 -- -- 89
2020-03-19 02:00:00 7.3 5 Sudoeste 10 Oeste 0 -- -- 86
2020-03-19 01:00:00 8.6 0 Calma 15 Nordeste 0 -- -- 80
2020-03-19 00:00:00 9.3 10 Nordeste 15 Nordeste 0 -- -- 77
2020-03-18 23:00:00 10.1 10 Nordeste 15 Nordeste 0 -- -- 75
2020-03-18 22:00:00 10.4 12 Nordeste 14 Nordeste 0 -- -- 77
2020-03-18 21:00:00 11.2 8 Este 14 Nordeste 0 -- -- 72
2020-03-18 20:00:00 12.4 4 Oeste 19 Este 0 -- -- 69
2020-03-18 19:00:00 14.2 6 Nordeste 22 Nordeste 0 -- -- 61
2020-03-18 18:00:00 15.6 13 Nordeste 27 Nordeste 0 -- -- 56
2020-03-18 17:00:00 17.4 14 Este 26 Nordeste 0 -- -- 51
2020-03-18 16:00:00 18.4 13 Nordeste 22 Este 0 -- -- 47
2020-03-18 15:00:00 17.8 14 Nordeste 24 Nordeste 0 -- -- 52
2020-03-18 14:00:00 15.4 17 Norte 29 Nordeste 0 -- -- 63
2020-03-18 13:00:00 14.7 17 Nordeste 30 Nordeste 0 -- -- 64
2020-03-18 12:00:00 13.4 20 Nordeste 31 Nordeste 0 -- -- 61
2020-03-18 11:00:00 12 19 Nordeste 28 Nordeste 0 -- -- 76
2020-03-18 10:00:00 9 20 Nordeste 28 Nordeste 0 -- -- 84
2020-03-18 09:00:00 7.2 21 Nordeste 28 Nordeste 0 -- -- 87
2020-03-18 08:00:00 5.7 16 Nordeste 26 Nordeste 0 -- -- 92
2020-03-18 07:00:00 5.3 19 Nordeste 30 Nordeste 0 -- -- 94
2020-03-18 06:00:00 5.8 23 Nordeste 32 Nordeste 0 -- -- 93
2020-03-18 05:00:00 5.8 17 Nordeste 30 Nordeste 0 -- -- 92
2020-03-18 04:00:00 7 17 Nordeste 23 Nordeste 0 -- -- 91
2020-03-18 03:00:00 6.8 7 Nordeste 18 Nordeste 0 -- -- 89
2020-03-18 02:00:00 7.4 15 Nordeste 36 Nordeste 0 -- -- 88
2020-03-18 01:00:00 8.4 23 Nordeste 33 Nordeste 0 -- -- 84
2020-03-18 00:00:00 8.2 23 Nordeste 31 Este 0 -- -- 85
2020-03-17 23:00:00 9.1 19 Nordeste 27 Nordeste 0 -- -- 82
2020-03-17 22:00:00 9.1 12 Este 25 Nordeste 0 -- -- 81
2020-03-17 21:00:00 9.6 13 Nordeste 26 Nordeste 0 -- -- 79
2020-03-17 20:00:00 10.5 17 Nordeste 33 Este 0 -- -- 76
2020-03-17 19:00:00 12.5 21 Este 35 Este 0 -- -- 66
2020-03-17 18:00:00 13.3 20 Este 54 Este 0 -- -- 63
2020-03-17 17:00:00 13.1 26 Este 41 Este 0 -- -- 62
2020-03-17 16:00:00 12.2 25 Este 44 Este 0 -- -- 68
2020-03-17 15:00:00 11 24 Nordeste 41 Nordeste 0 -- -- 76
2020-03-17 14:00:00 10.2 26 Nordeste 49 Este 0 -- -- 77
2020-03-17 13:00:00 9.7 25 Nordeste 36 Nordeste 0 -- -- 73
2020-03-17 12:00:00 8.8 26 Nordeste 39 Nordeste 0 -- -- 78
2020-03-17 11:00:00 6.4 19 Nordeste 34 Nordeste 0 -- -- 88
2020-03-17 10:00:00 4.5 15 Nordeste 27 Nordeste 0 -- -- 94
2020-03-17 09:00:00 3.6 17 Nordeste 31 Nordeste 0 -- -- 97
2020-03-17 08:00:00 3 20 Nordeste 29 Nordeste 0 -- -- 96
2020-03-17 07:00:00 2.6 21 Nordeste 27 Nordeste 0 -- -- 96
2020-03-17 06:00:00 1.5 9 Nordeste 15 Norte 0 -- -- 97
2020-03-17 05:00:00 1.4 3 Norte 17 Nordeste 0 -- -- 96
2020-03-17 04:00:00 1.5 11 Nordeste 26 Nordeste 0 -- -- 96
2020-03-17 03:00:00 1.9 14 Nordeste 21 Este 0 -- -- 95
2020-03-17 02:00:00 2 9 Nordeste 23 Este 0 -- -- 96
2020-03-17 01:00:00 2.2 13 Nordeste 25 Nordeste 0 -- -- 96
2020-03-17 00:00:00 2 14 Nordeste 20 Nordeste 0.8 -- -- 97
2020-03-16 23:00:00 1.7 14 Nordeste 31 Este 1.8 -- -- 97
2020-03-16 22:00:00 1.6 12 Este 48 Nordeste 3.2 -- -- 96
2020-03-16 21:00:00 3.3 27 Nordeste 51 Nordeste 3.2 -- -- 96
2020-03-16 20:00:00 3 30 Nordeste 53 Nordeste 2.2 -- -- 96
2020-03-16 19:00:00 1.9 17 Este 66 Nordeste 4.2 -- -- 96
2020-03-16 18:00:00 2.7 29 Nordeste 49 Nordeste 2.2 -- -- 97
2020-03-16 17:00:00 1.5 27 Nordeste 41 Norte 2.4 -- -- 96
2020-03-16 16:00:00 0.8 19 Norte 39 Norte 2.6 -- -- 97
2020-03-16 15:00:00 1.6 22 Norte 37 Norte 1.4 -- -- 94
2020-03-16 14:00:00 1.3 27 Norte 45 Norte 0.8 -- -- 95
2020-03-16 13:00:00 0.9 22 Norte 41 Norte 1.4 -- -- 97
2020-03-16 12:00:00 0.5 21 Norte 36 Norte 1.2 -- -- 97
2020-03-16 11:00:00 0.4 13 Norte 36 Norte 2.4 -- -- 98
2020-03-16 10:00:00 0.2 18 Norte 29 Norte 0.8 -- -- 98
2020-03-16 09:00:00 0.1 15 Norte 25 Norte 0.6 -- -- 97
2020-03-16 08:00:00 0.2 17 Norte 34 Norte 0.6 -- -- 96
2020-03-16 07:00:00 0.3 14 Noroeste 24 Norte 0.8 -- -- 96
2020-03-16 06:00:00 0.4 11 Noroeste 20 Oeste 0.6 -- -- 95
2020-03-16 05:00:00 0.5 10 Noroeste 26 Noroeste 0.2 -- -- 94
2020-03-16 04:00:00 0.9 13 Noroeste 24 Noroeste 0.2 -- -- 93
2020-03-16 03:00:00 1.1 10 Noroeste 21 Oeste 0.2 -- -- 93
2020-03-16 02:00:00 1.6 10 Noroeste 22 Noroeste 0 -- -- 88
2020-03-16 01:00:00 1.8 15 Noroeste 25 Oeste 0 -- -- 85
2020-03-16 00:00:00 2.5 13 Oeste 21 Oeste 0 -- -- 87
2020-03-15 23:00:00 2.6 7 Oeste 32 Noroeste 0 -- -- 88
2020-03-15 22:00:00 3 19 Noroeste 45 Noroeste 0 -- -- 87
2020-03-15 21:00:00 7.4 25 Noroeste 41 Oeste 0 -- -- 79
2020-03-15 20:00:00 9.5 16 Oeste 34 Oeste 0 -- -- 67
2020-03-15 19:00:00 10.3 18 Oeste 36 Oeste 0 -- -- 71
2020-03-15 18:00:00 12.4 23 Oeste 34 Oeste 0 -- -- 68
2020-03-15 17:00:00 14 15 Oeste 41 Oeste 0 -- -- 67
2020-03-15 16:00:00 12.8 25 Oeste 70 Sudoeste 0 -- -- 70
2020-03-15 15:00:00 16.1 30 Sudoeste 55 Sudoeste 0 -- -- 60
2020-03-15 14:00:00 16.3 34 Sudoeste 54 Sudoeste 0 -- -- 60
2020-03-15 13:00:00 16.3 28 Sudoeste 52 Sudoeste 0 -- -- 61
2020-03-15 12:00:00 16.2 25 Sudoeste 43 Sudoeste 0 -- -- 62
2020-03-15 11:00:00 15 22 Sudoeste 34 Sudoeste 0 -- -- 59
2020-03-15 10:00:00 10.4 6 Sudoeste 9 Sur 0 -- -- 70
2020-03-15 09:00:00 3.3 4 Noroeste 7 Oeste 0 -- -- 90
2020-03-15 08:00:00 1.1 6 Oeste 8 Oeste 0 -- -- 90
2020-03-15 07:00:00 -0.7 6 Oeste 9 Oeste 0 -- -- 91
2020-03-15 06:00:00 -1.2 5 Oeste 8 Oeste 0 -- -- 92
2020-03-15 05:00:00 -0.9 4 Noroeste 8 Oeste 0 -- -- 91
2020-03-15 04:00:00 -0.7 5 Oeste 10 Oeste 0 -- -- 92
2020-03-15 03:00:00 -0.6 6 Oeste 8 Oeste 0 -- -- 91
2020-03-15 02:00:00 -0.2 4 Oeste 9 Oeste 0 -- -- 88
2020-03-15 01:00:00 0.9 4 Oeste 10 Oeste 0 -- -- 86
2020-03-15 00:00:00 1.9 3 Oeste 8 Oeste 0 -- -- 83
2020-03-14 23:00:00 2.9 6 Oeste 9 Oeste 0 -- -- 80
2020-03-14 22:00:00 4.9 7 Oeste 9 Oeste 0 -- -- 74
2020-03-14 21:00:00 8.3 5 Noroeste 8 Noroeste 0 -- -- 60
2020-03-14 20:00:00 11.6 7 Nordeste 12 Nordeste 0 -- -- 49
2020-03-14 19:00:00 16.1 9 Nordeste 14 Nordeste 0 -- -- 37
2020-03-14 18:00:00 17.3 10 Nordeste 15 Nordeste 0 -- -- 33
2020-03-14 17:00:00 17.5 10 Nordeste 19 Nordeste 0 -- -- 35
2020-03-14 16:00:00 17.2 12 Nordeste 21 Norte 0 -- -- 38
2020-03-14 15:00:00 16.5 18 Nordeste 27 Norte 0 -- -- 39
2020-03-14 14:00:00 15.6 16 Nordeste 24 Nordeste 0 -- -- 40
2020-03-14 13:00:00 14 15 Nordeste 24 Nordeste 0 -- -- 42
2020-03-14 12:00:00 11.7 14 Nordeste 20 Nordeste 0 -- -- 68
2020-03-14 11:00:00 6.9 12 Nordeste 17 Nordeste 0 -- -- 99
2020-03-14 10:00:00 3.4 6 Nordeste 13 Nordeste 0 -- -- 99
2020-03-14 09:00:00 1 4 Este 7 Este 0 -- -- 99
2020-03-14 08:00:00 -0.4 0 Calma 5 Norte 0 -- -- 98
2020-03-14 07:00:00 0.3 0 Calma 5 Nordeste 0 -- -- 97
2020-03-14 06:00:00 0.5 3 Nordeste 6 Norte 0 -- -- 97
2020-03-14 05:00:00 0.9 4 Norte 8 Norte 0 -- -- 96
2020-03-14 04:00:00 2.4 4 Norte 6 Norte 0 -- -- 96
2020-03-14 03:00:00 3.9 0 Calma 9 Norte 0 -- -- 96
2020-03-14 02:00:00 4.1 6 Norte 10 Norte 0 -- -- 95
2020-03-14 01:00:00 5.6 7 Este 21 Nordeste 0 -- -- 93
2020-03-14 00:00:00 7.3 14 Nordeste 25 Nordeste 0 -- -- 89
2020-03-13 23:00:00 7.6 12 Nordeste 15 Nordeste 0 -- -- 90
2020-03-13 22:00:00 8.8 11 Nordeste 18 Norte 0 -- -- 85
2020-03-13 21:00:00 10.1 9 Nordeste 13 Nordeste 0 -- -- 81
2020-03-13 20:00:00 11.6 10 Nordeste 21 Norte 0 -- -- 78
2020-03-13 19:00:00 13.9 15 Norte 24 Norte 0 -- -- 71
2020-03-13 18:00:00 14.6 18 Norte 23 Nordeste 0 -- -- 69
2020-03-13 17:00:00 14.9 13 Nordeste 19 Norte 0 -- -- 69
2020-03-13 16:00:00 13.9 12 Nordeste 24 Norte 0 -- -- 72
2020-03-13 15:00:00 13.1 11 Nordeste 25 Nordeste 0 -- -- 76
2020-03-13 14:00:00 11.7 18 Nordeste 25 Nordeste 0 -- -- 79
2020-03-13 13:00:00 10.7 15 Nordeste 25 Norte 0 -- -- 82
2020-03-13 12:00:00 9 14 Nordeste 23 Nordeste 0 -- -- 89
2020-03-13 11:00:00 7.9 15 Nordeste 26 Nordeste 0 -- -- 92
2020-03-13 10:00:00 7.1 15 Nordeste 26 Nordeste 0 -- -- 94
2020-03-13 09:00:00 6.9 15 Nordeste 28 Nordeste 0 -- -- 95
2020-03-13 08:00:00 6.5 16 Nordeste 22 Nordeste 0 -- -- 96
2020-03-13 07:00:00 6.6 12 Nordeste 19 Nordeste 0 -- -- 96
2020-03-13 06:00:00 7 12 Nordeste 19 Nordeste 0 -- -- 96
2020-03-13 05:00:00 7.2 12 Nordeste 20 Nordeste 0 -- -- 97
2020-03-13 04:00:00 6.9 9 Nordeste 14 Nordeste 0 -- -- 95
2020-03-13 03:00:00 7.8 10 Nordeste 19 Nordeste 0 -- -- 92
2020-03-13 02:00:00 8.9 12 Nordeste 20 Nordeste 0 -- -- 91
2020-03-13 01:00:00 8.8 6 Nordeste 13 Norte 0 -- -- 90
2020-03-13 00:00:00 9.4 8 Sudoeste 9 Oeste 0 -- -- 88
2020-03-12 23:00:00 11.2 6 Oeste 11 Oeste 0 -- -- 86
2020-03-12 22:00:00 13.1 2 Sur 10 Oeste 0 -- -- 77
2020-03-12 21:00:00 13.9 7 Oeste 9 Oeste 0 -- -- 69
2020-03-12 20:00:00 16.3 3 Oeste 14 Oeste 0 -- -- 59
2020-03-12 19:00:00 17.5 6 Sudoeste 10 Sudoeste 0 -- -- 55
2020-03-12 18:00:00 19.2 8 Sudoeste 18 Sudoeste 0 -- -- 49
2020-03-12 17:00:00 19.3 8 Oeste 24 Oeste 0 -- -- 47
2020-03-12 16:00:00 20.6 15 Oeste 27 Oeste 0 -- -- 46
2020-03-12 15:00:00 21.2 16 Oeste 35 Sudoeste 0 -- -- 46
2020-03-12 14:00:00 21.8 21 Sudoeste 32 Sudoeste 0 -- -- 44
2020-03-12 13:00:00 21.3 14 Sudoeste 23 Sudoeste 0 -- -- 50
2020-03-12 12:00:00 18.3 11 Sur 18 Sudoeste 0 -- -- 52
2020-03-12 11:00:00 12.7 3 Nordeste 7 Norte 0 -- -- 79
2020-03-12 10:00:00 9.9 3 Norte 9 Sudoeste 0 -- -- 88
2020-03-12 09:00:00 6.7 6 Sudoeste 9 Sudoeste 0 -- -- 92
2020-03-12 08:00:00 6 5 Sudoeste 9 Sudoeste 0 -- -- 93
2020-03-12 07:00:00 5.9 6 Oeste 9 Oeste 0 -- -- 95
2020-03-12 06:00:00 6 5 Oeste 8 Oeste 0 -- -- 93
2020-03-12 05:00:00 6.6 5 Oeste 8 Oeste 0 -- -- 93
2020-03-12 04:00:00 7.2 4 Oeste 8 Oeste 0 -- -- 91
2020-03-12 03:00:00 8 5 Oeste 7 Oeste 0 -- -- 89
2020-03-12 02:00:00 8 6 Oeste 8 Oeste 0 -- -- 90
2020-03-12 01:00:00 8.7 6 Oeste 8 Oeste 0 -- -- 85
2020-03-12 00:00:00 9.9 6 Oeste 8 Oeste 0 -- -- 83
2020-03-11 23:00:00 11.4 4 Oeste 6 Oeste 0 -- -- 77
2020-03-11 22:00:00 13.7 3 Oeste 9 Sudoeste 0 -- -- 64
2020-03-11 21:00:00 14.4 6 Sudoeste 13 Sudoeste 0 -- -- 62
2020-03-11 20:00:00 15.8 9 Sudoeste 16 Sur 0 -- -- 58
2020-03-11 19:00:00 17.6 10 Sudoeste 22 Sudoeste 0 -- -- 51
2020-03-11 18:00:00 19.9 10 Sudoeste 21 Sudoeste 0 -- -- 47
2020-03-11 17:00:00 22 12 Sudoeste 27 Sudoeste 0 -- -- 42
2020-03-11 16:00:00 22.3 17 Sudoeste 29 Sudoeste 0 -- -- 39
2020-03-11 15:00:00 23.8 14 Sudoeste 24 Sudoeste 0 -- -- 38
2020-03-11 14:00:00 23.1 11 Sudoeste 22 Sudoeste 0 -- -- 40
2020-03-11 13:00:00 22.4 14 Sudoeste 20 Sudoeste 0 -- -- 42
2020-03-11 12:00:00 20.6 10 Sudoeste 14 Sudoeste 0 -- -- 49
2020-03-11 11:00:00 17 4 Sudoeste 8 Sudoeste 0 -- -- 64
2020-03-11 10:00:00 11.7 2 Sudoeste 8 Sudoeste 0 -- -- 81
2020-03-11 09:00:00 6.1 4 Sudoeste 8 Oeste 0 -- -- 96
2020-03-11 08:00:00 3.2 5 Oeste 6 Oeste 0 -- -- 97
2020-03-11 07:00:00 3.5 4 Oeste 7 Oeste 0 -- -- 96
2020-03-11 06:00:00 3.7 4 Oeste 10 Oeste 0 -- -- 96
2020-03-11 05:00:00 3.6 6 Oeste 8 Sudoeste 0 -- -- 95
2020-03-11 04:00:00 4.4 4 Noroeste 8 Oeste 0 -- -- 95
2020-03-11 03:00:00 4.9 4 Oeste 11 Noroeste 0 -- -- 93
2020-03-11 02:00:00 6 5 Noroeste 10 Noroeste 0 -- -- 92
2020-03-11 01:00:00 6.5 5 Oeste 8 Oeste 0 -- -- 90
2020-03-11 00:00:00 7.6 4 Oeste 7 Sudoeste 0 -- -- 88
2020-03-10 23:00:00 9.2 3 Noroeste 6 Norte 0 -- -- 82
2020-03-10 22:00:00 11.3 2 Oeste 14 Oeste 0 -- -- 75
2020-03-10 21:00:00 13.6 5 Sudoeste 9 Oeste 0 -- -- 66
2020-03-10 20:00:00 16 7 Sudoeste 10 Sudoeste 0 -- -- 61
2020-03-10 19:00:00 20.4 3 Oeste 15 Oeste 0 -- -- 44
2020-03-10 18:00:00 21.7 12 Oeste 33 Oeste 0 -- -- 40
2020-03-10 17:00:00 22.1 18 Oeste 26 Oeste 0 -- -- 36
2020-03-10 16:00:00 22.3 16 Oeste 24 Sudoeste 0 -- -- 39
2020-03-10 15:00:00 21.5 13 Oeste 21 Sudoeste 0 -- -- 45
2020-03-10 14:00:00 20.3 12 Sudoeste 18 Sudoeste 0 -- -- 45
2020-03-10 13:00:00 19.2 7 Sur 13 Sudoeste 0 -- -- 44
2020-03-10 12:00:00 16.5 7 Sudoeste 13 Sudoeste 0 -- -- 59
2020-03-10 11:00:00 12.7 6 Sudoeste 9 Sur 0 -- -- 69
2020-03-10 10:00:00 8.5 5 Oeste 11 Oeste 0 -- -- 76
2020-03-10 09:00:00 4.2 5 Noroeste 12 Noroeste 0 -- -- 91
2020-03-10 08:00:00 1.6 10 Noroeste 13 Noroeste 0 -- -- 94
2020-03-10 07:00:00 1.7 4 Noroeste 8 Noroeste 0 -- -- 93
2020-03-10 06:00:00 2 4 Noroeste 7 Oeste 0 -- -- 93
2020-03-10 05:00:00 2.4 6 Oeste 10 Sudoeste 0 -- -- 92
2020-03-10 04:00:00 2.4 7 Sudoeste 13 Sudoeste 0 -- -- 92
2020-03-10 03:00:00 2.2 5 Sudoeste 9 Oeste 0 -- -- 92
2020-03-10 02:00:00 2.7 2 Noroeste 6 Oeste 0 -- -- 90
2020-03-10 01:00:00 3 4 Oeste 8 Noroeste 0 -- -- 89
2020-03-10 00:00:00 4.2 6 Oeste 9 Oeste 0 -- -- 85
2020-03-09 23:00:00 5.2 4 Sudoeste 9 Sudoeste 0 -- -- 81
2020-03-09 22:00:00 5.8 4 Oeste 7 Oeste 0 -- -- 80
2020-03-09 21:00:00 7.4 6 Oeste 8 Oeste 0 -- -- 74
2020-03-09 20:00:00 9.5 5 Noroeste 10 Norte 0 -- -- 63
2020-03-09 19:00:00 12.5 8 Norte 14 Norte 0 -- -- 48
2020-03-09 18:00:00 13.6 9 Norte 15 Norte 0 -- -- 45
2020-03-09 17:00:00 14 11 Noroeste 24 Norte 0 -- -- 43
2020-03-09 16:00:00 13.7 12 Norte 23 Norte 0 -- -- 46
2020-03-09 15:00:00 13.2 10 Norte 15 Norte 0 -- -- 50
2020-03-09 14:00:00 12.1 8 Noroeste 17 Norte 0 -- -- 56
2020-03-09 13:00:00 10.4 6 Norte 14 Norte 0 -- -- 66
2020-03-09 12:00:00 9 5 Noroeste 13 Sudoeste 0 -- -- 72
2020-03-09 11:00:00 7.8 6 Sudoeste 14 Sudeste 0 -- -- 76
2020-03-09 10:00:00 6 4 Sudoeste 10 Oeste 0 -- -- 83
2020-03-09 09:00:00 3.3 4 Sudoeste 8 Sudoeste 0 -- -- 97
2020-03-09 08:00:00 1.9 5 Sudoeste 12 Oeste 0 -- -- 96
2020-03-09 07:00:00 2.8 5 Sudoeste 9 Oeste 0 -- -- 94
2020-03-09 06:00:00 4.3 5 Sudoeste 12 Oeste 0 -- -- 92
2020-03-09 05:00:00 5.3 4 Oeste 13 Oeste 0 -- -- 90
2020-03-09 04:00:00 6.1 6 Oeste 13 Oeste 0 -- -- 89
2020-03-09 03:00:00 6.5 3 Oeste 12 Oeste 0 -- -- 90
2020-03-09 02:00:00 7 8 Noroeste 18 Noroeste 0 -- -- 89
2020-03-09 01:00:00 7.1 11 Oeste 28 Oeste 0 -- -- 87
2020-03-09 00:00:00 7.4 12 Oeste 23 Noroeste 0 -- -- 89
2020-03-08 23:00:00 7.5 8 Sudoeste 17 Sudoeste 0 -- -- 90
2020-03-08 22:00:00 6.4 7 Sudoeste 15 Sudoeste 0 -- -- 92
2020-03-08 21:00:00 7.1 8 Sudoeste 14 Sudoeste 0 -- -- 89
2020-03-08 20:00:00 8.2 4 Sudoeste 15 Sudoeste 0 -- -- 85
2020-03-08 19:00:00 10.1 10 Oeste 29 Oeste 0 -- -- 81
2020-03-08 18:00:00 10.8 12 Noroeste 21 Noroeste 0 -- -- 76
2020-03-08 17:00:00 10.9 11 Oeste 21 Oeste 0 -- -- 71
2020-03-08 16:00:00 10.9 10 Sudoeste 17 Sudoeste 0 -- -- 66
2020-03-08 15:00:00 11.1 8 Oeste 15 Noroeste 0 -- -- 59
2020-03-08 14:00:00 10.5 11 Oeste 20 Noroeste 0 -- -- 59
2020-03-08 13:00:00 11.3 7 Oeste 15 Oeste 0 -- -- 59
2020-03-08 12:00:00 9.1 10 Sudoeste 16 Sur 0 -- -- 84
2020-03-08 11:00:00 5.9 3 Noroeste 12 Sudoeste 0 -- -- 99
2020-03-08 10:00:00 2.6 6 Sudoeste 9 Sudoeste 0 -- -- 99
2020-03-08 09:00:00 -0.6 6 Oeste 14 Noroeste 0 -- -- 96
2020-03-08 08:00:00 -2.4 5 Sudoeste 10 Oeste 0 -- -- 97
2020-03-08 07:00:00 -1.8 8 Oeste 11 Oeste 0 -- -- 96
2020-03-08 06:00:00 -2.2 4 Sudoeste 10 Sudoeste 0 -- -- 95
2020-03-08 05:00:00 -1.3 4 Oeste 9 Oeste 0 -- -- 94
2020-03-08 04:00:00 0.1 8 Oeste 13 Sudoeste 0 -- -- 95
2020-03-08 03:00:00 -1 6 Noroeste 12 Noroeste 0 -- -- 95
2020-03-08 02:00:00 -0.5 8 Noroeste 11 Noroeste 0 -- -- 95
2020-03-08 01:00:00 0.4 5 Oeste 10 Oeste 0 -- -- 94
2020-03-08 00:00:00 1.2 5 Sudoeste 10 Noroeste 0 -- -- 92
2020-03-07 23:00:00 2.9 5 Oeste 8 Oeste 0 -- -- 90
2020-03-07 22:00:00 4.2 5 Oeste 18 Oeste 0 -- -- 87
2020-03-07 21:00:00 6.2 8 Noroeste 10 Oeste 0 -- -- 79
2020-03-07 20:00:00 9.2 5 Norte 9 Nordeste 0 -- -- 71
2020-03-07 19:00:00 12.1 6 Nordeste 15 Norte 0 -- -- 61
2020-03-07 18:00:00 12.9 5 Norte 14 Norte 0 -- -- 55
2020-03-07 17:00:00 13.1 6 Norte 15 Norte 0 -- -- 53
2020-03-07 16:00:00 12.7 7 Nordeste 14 Nordeste 0 -- -- 56
2020-03-07 15:00:00 12 6 Norte 17 Nordeste 0 -- -- 56
2020-03-07 14:00:00 10.6 9 Norte 18 Nordeste 0 -- -- 61
2020-03-07 13:00:00 10.3 5 Norte 17 Nordeste 0 -- -- 65
2020-03-07 12:00:00 9.4 6 Nordeste 18 Sudeste 0 -- -- 65
2020-03-07 11:00:00 7.5 7 Sur 11 Sudeste 0 -- -- 72
2020-03-07 10:00:00 3.4 6 Oeste 12 Sudoeste 0 -- -- 85
2020-03-07 09:00:00 0.7 7 Oeste 11 Oeste 0 -- -- 92
2020-03-07 08:00:00 -0.1 8 Sudoeste 13 Sudoeste 0 -- -- 91
2020-03-07 07:00:00 0.4 6 Sudoeste 17 Sudoeste 0 -- -- 91
2020-03-07 06:00:00 -0.2 8 Sudoeste 13 Oeste 0 -- -- 92
2020-03-07 05:00:00 0.3 5 Sudoeste 8 Sur 0 -- -- 89
2020-03-07 04:00:00 0.3 3 Sur 8 Sudeste 0 -- -- 89
2020-03-07 03:00:00 0.9 4 Sudeste 13 Noroeste 0 -- -- 85
2020-03-07 02:00:00 1.1 6 Sur 9 Sur 0 -- -- 85
2020-03-07 01:00:00 1.8 2 Sur 13 Noroeste 0 -- -- 81
2020-03-07 00:00:00 2.1 8 Noroeste 15 Noroeste 0 -- -- 81
2020-03-06 23:00:00 3.1 6 Noroeste 15 Noroeste 0 -- -- 77
2020-03-06 22:00:00 4 12 Noroeste 25 Noroeste 0 -- -- 75
2020-03-06 21:00:00 4.8 14 Noroeste 21 Noroeste 0 -- -- 71
2020-03-06 20:00:00 5.1 8 Oeste 27 Noroeste 0 -- -- 71
2020-03-06 19:00:00 7.3 14 Noroeste 34 Noroeste 0 -- -- 60
2020-03-06 18:00:00 8.8 16 Noroeste 39 Oeste 0 -- -- 58
2020-03-06 17:00:00 8.8 19 Noroeste 40 Noroeste 0 -- -- 56
2020-03-06 16:00:00 8.9 20 Noroeste 36 Noroeste 0 -- -- 57
2020-03-06 15:00:00 8.2 24 Noroeste 42 Noroeste 0 -- -- 60
2020-03-06 14:00:00 8.3 25 Noroeste 43 Noroeste 0 -- -- 61
2020-03-06 13:00:00 6.8 25 Noroeste 46 Noroeste 0 -- -- 68
2020-03-06 12:00:00 6.5 28 Noroeste 49 Noroeste 0 -- -- 72
2020-03-06 11:00:00 4.9 23 Noroeste 38 Noroeste 0 -- -- 82
2020-03-06 10:00:00 4.7 21 Oeste 36 Oeste 0 -- -- 80
2020-03-06 09:00:00 4 12 Oeste 26 Oeste 0 -- -- 81
2020-03-06 08:00:00 4 17 Oeste 34 Oeste 0 -- -- 84
2020-03-06 07:00:00 4 20 Oeste 49 Oeste 0.2 -- -- 84
2020-03-06 06:00:00 5.2 19 Oeste 32 Oeste 0 -- -- 87
2020-03-06 05:00:00 4.9 19 Oeste 41 Oeste 0 -- -- 85
2020-03-06 04:00:00 5.2 19 Oeste 33 Oeste 0.2 -- -- 92
2020-03-06 03:00:00 5.2 18 Sudoeste 37 Sudoeste 0 -- -- 84
2020-03-06 02:00:00 4.5 19 Sudoeste 36 Oeste 0 -- -- 87
2020-03-06 01:00:00 4.3 19 Oeste 30 Oeste 0 -- -- 88
2020-03-06 00:00:00 4 14 Sudoeste 21 Oeste 0 -- -- 88
2020-03-05 23:00:00 4.8 15 Sudoeste 30 Sudoeste 0 -- -- 83
2020-03-05 22:00:00 5.8 17 Oeste 33 Sudoeste 0 -- -- 82
2020-03-05 21:00:00 6.4 21 Oeste 36 Oeste 0 -- -- 80
2020-03-05 20:00:00 7.1 20 Oeste 36 Oeste 0 -- -- 78
2020-03-05 19:00:00 9.1 18 Oeste 45 Oeste 0 -- -- 69
2020-03-05 18:00:00 10.4 26 Oeste 48 Oeste 0 -- -- 63
2020-03-05 17:00:00 11.4 26 Oeste 47 Oeste 0 -- -- 62
2020-03-05 16:00:00 10.7 22 Oeste 40 Oeste 0 -- -- 67
2020-03-05 15:00:00 10.7 24 Oeste 59 Oeste 0 -- -- 69
2020-03-05 14:00:00 10.6 31 Oeste 54 Oeste 0 -- -- 70
2020-03-05 13:00:00 9.8 30 Oeste 47 Oeste 0 -- -- 71
2020-03-05 12:00:00 8.5 26 Oeste 54 Oeste 0 -- -- 80
2020-03-05 11:00:00 7.9 27 Oeste 68 Oeste 0 -- -- 83
2020-03-05 10:00:00 6.5 32 Oeste 62 Oeste 1.4 -- -- 91
2020-03-05 09:00:00 8.8 30 Sudoeste 64 Sudoeste 0.8 -- -- 96
2020-03-05 08:00:00 8.8 33 Sudoeste 55 Sudoeste 0.6 -- -- 96
2020-03-05 07:00:00 9.3 39 Sudoeste 66 Sudoeste 0 -- -- 93
2020-03-05 06:00:00 9.7 48 Sudoeste 71 Sudoeste 0 -- -- 89
2020-03-05 05:00:00 9.7 26 Sudoeste 45 Sudoeste 0 -- -- 88
2020-03-05 04:00:00 10 23 Sudoeste 39 Sudoeste 0 -- -- 92
2020-03-05 03:00:00 10.3 19 Sudoeste 43 Sudoeste 0 -- -- 92
2020-03-05 02:00:00 10.2 26 Sudoeste 37 Sudoeste 0 -- -- 94
2020-03-05 01:00:00 9.9 20 Sudoeste 28 Sudoeste 0 -- -- 93
2020-03-05 00:00:00 10.2 14 Sudoeste 27 Sudoeste 0 -- -- 91
2020-03-04 23:00:00 10.1 18 Sudoeste 25 Sudoeste 0 -- -- 90
2020-03-04 22:00:00 10.1 14 Sudoeste 22 Sudoeste 0 -- -- 91
2020-03-04 21:00:00 10 11 Sudoeste 18 Oeste 0 -- -- 90
2020-03-04 20:00:00 10.3 8 Sudoeste 26 Sudoeste 0 -- -- 86
2020-03-04 19:00:00 11.5 14 Sudoeste 27 Sudoeste 0 -- -- 81
2020-03-04 18:00:00 12.3 16 Sudoeste 26 Oeste 0 -- -- 75
2020-03-04 17:00:00 12.7 16 Sudoeste 28 Oeste 0 -- -- 71
2020-03-04 16:00:00 12.8 15 Oeste 29 Oeste 0 -- -- 69
2020-03-04 15:00:00 12.6 15 Oeste 31 Oeste 0 -- -- 69
2020-03-04 14:00:00 12.2 21 Oeste 30 Oeste 0 -- -- 74
2020-03-04 13:00:00 12.3 18 Oeste 34 Sudoeste 0 -- -- 72
2020-03-04 12:00:00 12.3 14 Sudoeste 24 Oeste 0 -- -- 82
2020-03-04 11:00:00 10.7 11 Oeste 23 Sudoeste 0 -- -- 87
2020-03-04 10:00:00 9.5 12 Sudoeste 19 Sudoeste 0 -- -- 90
2020-03-04 09:00:00 8.8 11 Sudoeste 22 Oeste 0 -- -- 93
2020-03-04 08:00:00 8.3 11 Sudoeste 26 Oeste 0 -- -- 95
2020-03-04 07:00:00 8.6 15 Sudoeste 24 Oeste 0 -- -- 94
2020-03-04 06:00:00 9.4 15 Sudoeste 32 Oeste 0 -- -- 91
2020-03-04 05:00:00 9.6 14 Sudoeste 28 Sudoeste 0 -- -- 97
2020-03-04 04:00:00 9.8 15 Sudoeste 24 Sudoeste 0 -- -- 97
2020-03-04 03:00:00 10.2 16 Oeste 24 Sudoeste 0 -- -- 97
2020-03-04 02:00:00 10.2 10 Sudoeste 23 Sudoeste 0.2 -- -- 97
2020-03-04 01:00:00 10.3 15 Sudoeste 25 Sudoeste 0 -- -- 97
2020-03-04 00:00:00 10.5 17 Sudoeste 29 Sur 0 -- -- 96
2020-03-03 23:00:00 10.6 12 Sudoeste 23 Sudoeste 0 -- -- 96
2020-03-03 22:00:00 11 14 Sudoeste 25 Sudoeste 0 -- -- 94
2020-03-03 21:00:00 11.2 16 Oeste 24 Oeste 0 -- -- 93
2020-03-03 20:00:00 11.1 8 Oeste 25 Oeste 0 -- -- 94
2020-03-03 19:00:00 10.9 12 Oeste 23 Sudoeste 0 -- -- 97
2020-03-03 18:00:00 10.4 13 Sudoeste 30 Sudoeste 0.2 -- -- 97
2020-03-03 17:00:00 10.3 18 Sudoeste 28 Sudoeste 0 -- -- 95
2020-03-03 16:00:00 10.1 17 Sudoeste 29 Sudoeste 0 -- -- 96
2020-03-03 15:00:00 8.9 17 Sudoeste 34 Sudoeste 0.2 -- -- 97
2020-03-03 14:00:00 8.7 19 Sudoeste 35 Sudoeste 0 -- -- 95
2020-03-03 13:00:00 7.4 19 Sudoeste 55 Sudoeste 0 -- -- 95
2020-03-03 12:00:00 7.4 26 Sudoeste 44 Sudoeste 0 -- -- 93
2020-03-03 11:00:00 6.8 29 Sudoeste 43 Sudoeste 0 -- -- 92
2020-03-03 10:00:00 6 26 Sudoeste 39 Sudoeste 0 -- -- 93
2020-03-03 09:00:00 4.7 18 Sudoeste 40 Sudoeste 0 -- -- 95
2020-03-03 08:00:00 4.2 24 Sudoeste 38 Sudoeste 0 -- -- 92
2020-03-03 07:00:00 4.3 28 Sudoeste 43 Sudoeste 0 -- -- 87
2020-03-03 06:00:00 4.5 25 Sudoeste 38 Sudoeste 0 -- -- 81
2020-03-03 05:00:00 4.9 20 Sudoeste 32 Sudoeste 0 -- -- 79
2020-03-03 04:00:00 4.9 16 Sudoeste 27 Sudoeste 0 -- -- 79
2020-03-03 03:00:00 4.3 14 Sudoeste 25 Sur 0 -- -- 82
2020-03-03 02:00:00 4.4 19 Sudoeste 28 Sudoeste 0 -- -- 80
2020-03-03 01:00:00 4 16 Sudoeste 33 Sudoeste 0 -- -- 79
2020-03-03 00:00:00 3.3 17 Sudoeste 24 Sudoeste 0 -- -- 81